ADDS METAR Data INFO
IDs: Format: Raw Decoded Include TAF

Data at: 0300 UTC 21 Jan 2018

KHJH 210255Z AUTO 09003KT 5SM BR OVC039 04/03 A2982 RMK AO2 T00370030
KHJH 210235Z AUTO 00000KT 5SM BR BKN039 03/03 A2982 RMK AO2 T00330027
KHJH 210215Z AUTO 05003KT 5SM BR CLR 03/02 A2982 RMK AO2 T00310024
KHJH 210155Z AUTO 07004KT 7SM SCT032 04/03 A2983 RMK AO2 T00400029
KHJH 210135Z AUTO 00000KT 7SM BKN030 05/03 A2983 RMK AO2 T00500034
KHJH 210115Z AUTO 06003KT 10SM OVC028 05/04 A2983 RMK AO2 T00540037
KHJH 210055Z AUTO 06003KT 10SM OVC026 06/04 A2982 RMK AO2 T00550037
KHJH 210035Z AUTO 06004KT 10SM OVC026 06/04 A2982 RMK AO2 T00590038
KHJH 210015Z AUTO 00000KT 10SM SCT019 OVC024 06/04 A2981 RMK AO2 T00600039
KHJH 202355Z AUTO 00000KT 10SM OVC024 06/04 A2981 RMK AO2 T00620040 10075 20037
KHJH 202335Z AUTO 07004KT 10SM OVC024 06/04 A2980 RMK AO2 T00620040
KHJH 202315Z AUTO 05004KT 10SM OVC022 07/04 A2979 RMK AO2 T00680042
KHJH 202255Z AUTO 05004KT 10SM OVC022 07/04 A2980 RMK AO2 T00710042
KHJH 202235Z AUTO 05005KT 10SM OVC020 07/04 A2980 RMK AO2 T00730042
KHJH 202215Z AUTO 03004KT 10SM OVC020 07/04 A2980 RMK AO2 T00730041
KHJH 202155Z AUTO 05005KT 10SM OVC020 08/04 A2979 RMK AO2 T00750043
KHJH 202135Z AUTO 05004KT 10SM OVC018 08/04 A2978 RMK AO2 T00750043
KHJH 202115Z AUTO 04005KT 10SM OVC018 07/04 A2978 RMK AO2 T00720042
KHJH 202055Z AUTO 06005KT 10SM OVC018 07/05 A2978 RMK AO2 T00700046
KHJH 202035Z AUTO 07004KT 10SM SCT012 OVC018 07/05 A2977 RMK AO2 T00700046
KHJH 202015Z AUTO 04003KT 10SM OVC018 07/05 A2978 RMK AO2 T00650045
KHJH 201955Z AUTO 35003KT 10SM OVC018 06/04 A2978 RMK AO2 T00620044
KHJH 201935Z AUTO 34003KT 10SM SCT005 OVC016 06/04 A2978 RMK AO2 T00590043
KHJH 201915Z AUTO 34004KT 7SM SCT005 OVC016 05/04 A2979 RMK AO2 T00530042
KHJH 201855Z AUTO 03003KT 5SM BR BKN003 OVC014 05/04 A2980 RMK AO2 T00470041
KHJH 201835Z AUTO 01003KT 4SM BR OVC003 04/04 A2981 RMK AO2 T00430040
KHJH 201815Z AUTO 34003KT 4SM BR OVC003 04/04 A2982 RMK AO2 T00420039
KHJH 201755Z AUTO 33003KT 2SM BR OVC003 04/03 A2983 RMK AO2 T00360033 10036 21064
KHJH 201735Z AUTO 00000KT 1/2SM FG OVC003 03/03 A2983 RMK AO2 T00280025
KHJH 201715Z AUTO 00000KT 1/4SM FG OVC003 02/02 A2983 RMK AO2 T00200017
KHJH 201655Z AUTO 00000KT 1/4SM FG OVC003 01/01 A2983 RMK AO2 T00110008
KHJH 201635Z AUTO 00000KT 1/4SM FG OVC003 01/00 A2983 RMK AO2 T00060003
KHJH 201615Z AUTO 00000KT M1/4SM FZFG OVC003 00/M01 A2984 RMK AO2 T10031006
KHJH 201555Z AUTO 00000KT M1/4SM FZFG OVC003 M01/M02 A2983 RMK AO2 T10131017
KHJH 201535Z AUTO 00000KT 1 1/4SM BR OVC003 M02/M03 A2982 RMK AO2 VIS 1/2V5 T10221029
KHJH 201515Z AUTO 00000KT 10SM OVC003 M03/M04 A2981 RMK AO2 T10301044
KHJH 201455Z AUTO 00000KT 10SM BKN005 M04/M05 A2981 RMK AO2 T10421052
KHJH 201435Z AUTO 00000KT 10SM CLR M05/M06 A2981 RMK AO2 T10511060
KHJH 201415Z AUTO 00000KT 10SM CLR M06/M07 A2981 RMK AO2 T10601070
KHJH 201355Z AUTO 00000KT 10SM CLR M06/M07 A2981 RMK AO2 T10641073
KHJH 201335Z AUTO 00000KT 10SM CLR M06/M07 A2979 RMK AO2 T10581068
KHJH 201315Z AUTO 00000KT 10SM CLR M06/M06 A2980 RMK AO2 T10561064
KHJH 201255Z AUTO 00000KT 10SM CLR M06/M06 A2979 RMK AO2 T10561065
KHJH 201235Z AUTO 00000KT 10SM CLR M05/M06 A2979 RMK AO2 T10511060
KHJH 201215Z AUTO 00000KT 10SM CLR M05/M06 A2979 RMK AO2 T10541062
KHJH 201155Z AUTO 00000KT 10SM CLR M05/M06 A2978 RMK AO2 T10541064 11015 21054
KHJH 201135Z AUTO 00000KT 10SM CLR M05/M06 A2978 RMK AO2 T10491060
KHJH 201115Z AUTO 00000KT 10SM CLR M05/M06 A2978 RMK AO2 T10481057
KHJH 201055Z AUTO 00000KT 10SM CLR M05/M06 A2978 RMK AO2 T10501060
KHJH 201035Z AUTO 00000KT 10SM CLR M05/M06 A2978 RMK AO2 T10491059
KHJH 201015Z AUTO 00000KT 10SM CLR M05/M06 A2978 RMK AO2 T10461056
KHJH 200955Z AUTO 00000KT 10SM CLR M04/M06 A2978 RMK AO2 T10441057
KHJH 200935Z AUTO 00000KT 10SM CLR M04/M05 A2977 RMK AO2 T10381052
KHJH 200915Z AUTO 00000KT 10SM CLR M03/M05 A2978 RMK AO2 T10321046
KHJH 200855Z AUTO 00000KT 10SM CLR M03/M05 A2977 RMK AO2 T10341048
KHJH 200835Z AUTO 00000KT 10SM CLR M03/M04 A2977 RMK AO2 T10321045
KHJH 200815Z AUTO 00000KT 10SM CLR M04/M05 A2977 RMK AO2 T10401051
KHJH 200755Z AUTO 00000KT 10SM CLR M03/M05 A2976 RMK AO2 T10351047
KHJH 200735Z AUTO 00000KT 10SM CLR M03/M05 A2976 RMK AO2 T10351049
KHJH 200715Z AUTO 00000KT 10SM CLR M02/M04 A2976 RMK AO2 T10181040
KHJH 200655Z AUTO 00000KT 10SM CLR M02/M04 A2976 RMK AO2 T10251042
KHJH 200635Z AUTO 00000KT 10SM CLR M02/M04 A2977 RMK AO2 T10201039
KHJH 200615Z AUTO 00000KT 10SM CLR M02/M04 A2977 RMK AO2 T10241040
KHJH 200555Z AUTO 00000KT 10SM CLR M02/M04 A2977 RMK AO2 T10181038 10035 21020 401031020
KHJH 200535Z AUTO 00000KT 10SM CLR M02/M04 A2976 RMK AO2 T10201036
KHJH 200515Z AUTO 00000KT 10SM CLR M01/M03 A2976 RMK AO2 T10151033
KHJH 200455Z AUTO 00000KT 10SM CLR M01/M03 A2976 RMK AO2 T10071033
KHJH 200435Z AUTO 00000KT 10SM CLR M01/M03 A2976 RMK AO2 T10081034
KHJH 200415Z AUTO 00000KT 10SM CLR M01/M03 A2976 RMK AO2 T10061035
KHJH 200355Z AUTO 00000KT 10SM CLR M01/M03 A2975 RMK AO2 T10061034
KHJH 200335Z AUTO 00000KT 10SM CLR 00/M03 A2974 RMK AO2 T10011032
KHJH 200315Z AUTO 00000KT 10SM CLR 00/M03 A2974 RMK AO2 T10021033
KHJH 200255Z AUTO 00000KT 10SM CLR 01/M03 A2974 RMK AO2 T00111029
KHJH 200235Z AUTO 18003KT 10SM CLR 01/M03 A2974 RMK AO2 T00131028
KHJH 200215Z AUTO 00000KT 10SM CLR 02/M03 A2974 RMK AO2 T00151027
KHJH 200155Z AUTO 00000KT 10SM CLR 01/M03 A2973 RMK AO2 T00091026
KHJH 200135Z AUTO 00000KT 10SM CLR 03/M02 A2973 RMK AO2 T00281025
KHJH 200115Z AUTO 18003KT 10SM CLR 03/M02 A2973 RMK AO2 T00261024
KHJH 200055Z AUTO 19003KT 10SM CLR 03/M02 A2973 RMK AO2 T00311021
KHJH 200035Z AUTO 18004KT 10SM CLR 03/M02 A2973 RMK AO2 T00251020
KHJH 200015Z AUTO 15004KT 10SM CLR 02/M02 A2971 RMK AO2 T00151023
KHJH 192355Z AUTO 00000KT 10SM CLR 03/M02 A2971 RMK AO2 T00341017 10103 20030
KHJH 192335Z AUTO 00000KT 10SM CLR 05/M02 A2971 RMK AO2 T00461017
KHJH 192315Z AUTO 00000KT 10SM CLR 06/M01 A2970 RMK AO2 T00621012
KHJH 192255Z AUTO 00000KT 10SM CLR 07/M01 A2969 RMK AO2 T00671009
KHJH 192235Z AUTO 17004KT 10SM CLR 08/M01 A2969 RMK AO2 T00801008
KHJH 192215Z AUTO 17003KT 10SM CLR 09/M01 A2969 RMK AO2 T00871006
KHJH 192155Z AUTO 19007KT 10SM CLR 09/M01 A2969 RMK AO2 T00911009
KHJH 192135Z AUTO 19008KT 10SM CLR 10/M01 A2969 RMK AO2 T00971011
KHJH 192115Z AUTO 19010KT 10SM CLR 10/M01 A2968 RMK AO2 T01001009
KHJH 192055Z AUTO 19010KT 10SM CLR 10/M01 A2968 RMK AO2 T00971007
KHJH 192035Z AUTO 18010KT 10SM CLR 10/M01 A2968 RMK AO2 T00991011
KHJH 192015Z AUTO 20010G14KT 10SM CLR 10/M02 A2968 RMK AO2 T00991018
KHJH 191955Z AUTO 20009KT 10SM CLR 10/M02 A2969 RMK AO2 T01001020
KHJH 191935Z AUTO 20011KT 10SM CLR 10/M02 A2969 RMK AO2 T01011020
KHJH 191915Z AUTO 20011KT 10SM CLR 10/M02 A2969 RMK AO2 T00971019
KHJH 191855Z AUTO 19010KT 10SM CLR 09/M02 A2971 RMK AO2 T00901019
KHJH 191835Z AUTO 19013G18KT 10SM CLR 08/M02 A2972 RMK AO2 T00811023
KHJH 191815Z AUTO 20010G16KT 10SM CLR 07/M03 A2973 RMK AO2 T00711026
KHJH 191755Z AUTO 20008KT 10SM CLR 06/M03 A2976 RMK AO2 T00621029 10062 20003
KHJH 191735Z AUTO 20010G14KT 10SM CLR 05/M03 A2977 RMK AO2 T00531035
KHJH 191715Z AUTO 21008G17KT 10SM CLR 05/M04 A2978 RMK AO2 T00481038
KHJH 191655Z AUTO 21010G15KT 10SM CLR 04/M04 A2979 RMK AO2 T00421042
KHJH 191635Z AUTO 22009KT 10SM CLR 04/M04 A2979 RMK AO2 T00391045
KHJH 191615Z AUTO 21011G15KT 10SM CLR 03/M04 A2979 RMK AO2 T00331044
KHJH 191555Z AUTO 22008KT 10SM CLR 03/M05 A2980 RMK AO2 T00281049
KHJH 191535Z AUTO 22006KT 10SM CLR 02/M05 A2980 RMK AO2 T00231049
KHJH 191515Z AUTO 22006KT 10SM CLR 02/M05 A2979 RMK AO2 T00161051